createdAt,value
2023-02-12T00:01:28.891Z,52.72
2023-02-12T00:03:57.399Z,50.42
2023-02-12T00:06:25.190Z,48.30
2023-02-12T00:08:54.932Z,48.92
2023-02-12T00:11:24.886Z,45.90
2023-02-12T00:13:53.032Z,46.83
2023-02-12T00:16:23.815Z,46.75
2023-02-12T00:18:56.029Z,46.75
2023-02-12T00:23:51.048Z,51.63
2023-02-12T00:26:20.067Z,46.60
2023-02-12T00:28:50.435Z,54.53
2023-02-12T00:31:27.474Z,46.45
2023-02-12T00:33:57.888Z,46.42
2023-02-12T00:36:27.437Z,45.85
2023-02-12T00:38:56.011Z,46.00
2023-02-12T00:41:25.748Z,46.92
2023-02-12T00:43:54.109Z,46.50
2023-02-12T00:46:21.650Z,45.42
2023-02-12T00:48:49.789Z,50.00
2023-02-12T00:51:20.477Z,48.72
2023-02-12T00:53:47.979Z,45.53
2023-02-12T00:56:15.654Z,46.55
2023-02-12T00:58:44.044Z,45.00
2023-02-12T01:01:11.833Z,43.28
2023-02-12T01:03:39.255Z,46.67
2023-02-12T01:06:07.057Z,45.20
2023-02-12T01:08:34.891Z,45.63
2023-02-12T01:11:04.614Z,45.70
2023-02-12T01:13:34.426Z,49.00
2023-02-12T01:16:08.879Z,47.35
2023-02-12T01:18:37.978Z,43.65
2023-02-12T01:21:15.178Z,45.15
2023-02-12T01:23:43.615Z,42.08
2023-02-12T01:26:15.068Z,44.38
2023-02-12T01:28:44.132Z,41.63
2023-02-12T01:31:14.954Z,44.78
2023-02-12T01:33:43.051Z,51.83
2023-02-12T01:36:11.659Z,45.47
2023-02-12T01:38:39.133Z,45.22
2023-02-12T01:41:12.571Z,41.13
2023-02-12T01:43:41.130Z,43.45
2023-02-12T01:46:12.938Z,44.70
2023-02-12T01:48:47.260Z,42.40
2023-02-12T01:51:20.328Z,42.17
2023-02-12T01:53:53.557Z,48.25
2023-02-12T01:56:23.780Z,46.55
2023-02-12T01:58:53.095Z,46.30
2023-02-12T02:01:24.169Z,45.75
2023-02-12T02:06:28.004Z,44.00
2023-02-12T02:08:56.971Z,45.05
2023-02-12T02:11:42.844Z,43.97
2023-02-12T02:14:28.748Z,41.97
2023-02-12T02:17:00.469Z,45.47
2023-02-12T02:20:05.841Z,45.53
2023-02-12T02:22:55.079Z,45.83
2023-02-12T02:25:40.725Z,45.15
2023-02-12T02:28:26.738Z,45.95
2023-02-12T02:31:00.841Z,48.05
2023-02-12T02:33:37.211Z,48.35
2023-02-12T02:36:26.363Z,50.83
2023-02-12T02:38:59.901Z,50.22
2023-02-12T02:41:37.008Z,50.05
2023-02-12T02:44:13.571Z,51.58
2023-02-12T02:46:48.892Z,52.60
2023-02-12T02:49:22.969Z,53.00
2023-02-12T02:51:55.661Z,57.30
2023-02-12T02:54:41.948Z,55.50
2023-02-12T02:57:30.412Z,58.25
2023-02-12T03:00:20.440Z,60.72
2023-02-12T03:03:00.535Z,60.40
2023-02-12T03:05:34.823Z,58.25
2023-02-12T03:08:12.576Z,58.97
2023-02-12T03:10:44.868Z,56.10
2023-02-12T03:13:18.963Z,53.95
2023-02-12T03:16:04.440Z,58.45
2023-02-12T03:18:47.006Z,49.97
2023-02-12T03:21:20.520Z,53.15
2023-02-12T03:24:00.868Z,52.55
2023-02-12T03:26:47.259Z,53.00
2023-02-12T03:29:15.048Z,51.13
2023-02-12T03:31:58.742Z,56.45
2023-02-12T03:35:04.189Z,51.88
2023-02-12T03:37:43.812Z,51.30
2023-02-12T03:40:35.590Z,53.33
2023-02-12T03:43:06.449Z,51.03
2023-02-12T03:45:42.903Z,52.00
2023-02-12T03:48:13.552Z,52.08
2023-02-12T03:50:51.863Z,50.72
2023-02-12T03:53:19.777Z,54.03
2023-02-12T03:55:51.745Z,51.25
2023-02-12T03:58:23.831Z,54.03
2023-02-12T04:03:19.138Z,52.92
2023-02-12T04:05:46.579Z,52.72
2023-02-12T04:08:14.960Z,53.85
2023-02-12T04:11:04.188Z,54.47
2023-02-12T04:13:45.286Z,54.30
2023-02-12T04:16:31.111Z,53.22
2023-02-12T04:18:59.180Z,55.25
2023-02-12T04:21:35.367Z,53.55
2023-02-12T04:24:14.473Z,53.63
2023-02-12T04:26:58.011Z,51.83
2023-02-12T04:29:37.575Z,53.15
2023-02-12T04:32:43.999Z,52.22
2023-02-12T04:35:22.113Z,52.72
2023-02-12T04:37:59.071Z,54.10
2023-02-12T04:40:26.989Z,51.00
2023-02-12T04:42:54.833Z,53.33
2023-02-12T04:45:33.919Z,54.05
2023-02-12T04:48:01.684Z,52.15
2023-02-12T04:50:42.702Z,52.80
2023-02-12T04:53:11.099Z,53.47
2023-02-12T04:55:38.592Z,50.20
2023-02-12T04:58:06.221Z,51.55
2023-02-12T05:00:33.717Z,50.95
2023-02-12T05:03:01.343Z,50.60
2023-02-12T05:05:28.892Z,49.35
2023-02-12T05:07:56.342Z,50.90
2023-02-12T05:10:23.769Z,49.42
2023-02-12T05:12:54.441Z,48.83
2023-02-12T05:15:22.432Z,49.08
2023-02-12T05:17:49.860Z,53.55
2023-02-12T05:20:17.382Z,49.83
2023-02-12T05:22:44.872Z,50.05
2023-02-12T05:25:12.340Z,50.40
2023-02-12T05:27:39.728Z,52.53
2023-02-12T05:30:09.560Z,50.65
2023-02-12T05:32:36.989Z,51.47
2023-02-12T05:35:04.756Z,50.47
2023-02-12T05:37:36.200Z,51.83
2023-02-12T05:40:08.808Z,51.17
2023-02-12T05:42:36.379Z,51.80
2023-02-12T05:45:04.022Z,52.30
2023-02-12T05:47:31.440Z,50.70
2023-02-12T05:49:58.844Z,50.53
2023-02-12T05:52:26.242Z,50.05
2023-02-12T05:54:53.635Z,51.88
2023-02-12T05:57:21.122Z,51.22
2023-02-12T05:59:48.552Z,49.92
2023-02-12T06:02:16.001Z,49.45
2023-02-12T06:04:43.437Z,50.97
2023-02-12T06:07:10.836Z,51.65
2023-02-12T06:09:38.279Z,52.33
2023-02-12T06:12:05.758Z,53.42
2023-02-12T06:14:33.254Z,53.08
2023-02-12T06:17:00.662Z,50.88
2023-02-12T06:19:28.114Z,50.13
2023-02-12T06:21:55.616Z,52.33
2023-02-12T06:24:23.109Z,50.78
2023-02-12T06:26:51.713Z,50.72
2023-02-12T06:29:20.094Z,50.03
2023-02-12T06:31:47.994Z,53.33
2023-02-12T06:34:18.111Z,53.92
2023-02-12T06:36:46.583Z,53.33
2023-02-12T06:39:15.455Z,51.85
2023-02-12T06:41:43.962Z,51.42
2023-02-12T06:44:12.508Z,51.78
2023-02-12T06:46:40.186Z,51.60
2023-02-12T06:49:07.745Z,51.28
2023-02-12T06:51:36.446Z,50.42
2023-02-12T06:54:04.143Z,50.10
2023-02-12T06:56:31.574Z,53.55
2023-02-12T06:59:01.249Z,55.67
2023-02-12T07:01:30.105Z,67.55
2023-02-12T07:04:02.891Z,58.00
2023-02-12T07:06:36.097Z,62.60
2023-02-12T07:09:05.097Z,64.03
2023-02-12T07:11:37.588Z,54.20
2023-02-12T07:14:06.282Z,54.20
2023-02-12T07:16:33.784Z,49.40
2023-02-12T07:19:01.327Z,50.40
2023-02-12T07:21:28.774Z,48.90
2023-02-12T07:23:56.265Z,47.42
2023-02-12T07:26:23.983Z,48.25
2023-02-12T07:28:51.827Z,46.03
2023-02-12T07:31:24.092Z,45.13
2023-02-12T07:33:56.847Z,44.58
2023-02-12T07:36:25.628Z,43.88
2023-02-12T07:38:54.524Z,50.85
2023-02-12T07:41:22.990Z,40.50
2023-02-12T07:43:55.544Z,41.80
2023-02-12T07:46:32.409Z,41.10
2023-02-12T07:49:05.445Z,40.47
2023-02-12T07:51:35.199Z,38.80
2023-02-12T07:54:03.327Z,37.47
2023-02-12T07:56:35.323Z,40.13
2023-02-12T07:59:11.013Z,36.03
2023-02-12T08:01:40.999Z,37.33
2023-02-12T08:04:13.171Z,36.55
2023-02-12T08:06:43.811Z,35.50
2023-02-12T08:09:13.864Z,35.45
2023-02-12T08:11:43.478Z,37.05
2023-02-12T08:14:13.540Z,34.13
2023-02-12T08:16:42.737Z,36.30
2023-02-12T08:19:19.517Z,39.33
2023-02-12T08:21:52.952Z,38.95
2023-02-12T08:24:22.166Z,39.95
2023-02-12T08:26:50.237Z,40.55
2023-02-12T08:29:20.668Z,36.05
2023-02-12T08:31:49.794Z,34.50
2023-02-12T08:34:23.621Z,35.13
2023-02-12T08:36:54.176Z,34.03
2023-02-12T08:39:22.741Z,36.13
2023-02-12T08:41:50.835Z,32.25
2023-02-12T08:44:18.791Z,33.65
2023-02-12T08:46:48.604Z,31.98
2023-02-12T08:49:21.933Z,40.28
2023-02-12T08:51:52.236Z,35.58
2023-02-12T08:54:22.794Z,33.97
2023-02-12T08:56:50.584Z,35.58
2023-02-12T08:59:18.403Z,36.70
2023-02-12T09:01:45.909Z,34.60
2023-02-12T09:04:18.090Z,36.72
2023-02-12T09:09:14.932Z,35.33
2023-02-12T09:11:42.983Z,35.17
2023-02-12T09:14:14.214Z,36.35
2023-02-12T09:16:41.933Z,33.45
2023-02-12T09:19:12.475Z,33.97
2023-02-12T09:21:39.997Z,35.22
2023-02-12T09:24:10.834Z,33.83
2023-02-12T09:26:39.724Z,34.80
2023-02-12T09:29:07.317Z,35.13
2023-02-12T09:31:34.982Z,34.03
2023-02-12T09:34:05.221Z,33.38
2023-02-12T09:36:33.351Z,31.98
2023-02-12T09:39:00.874Z,32.83
2023-02-12T09:41:48.364Z,32.53
2023-02-12T09:44:36.261Z,32.42
2023-02-12T09:47:30.132Z,32.42
2023-02-12T09:50:15.639Z,31.23
2023-02-12T09:52:44.439Z,31.88
2023-02-12T09:55:17.006Z,32.33
2023-02-12T09:57:46.200Z,30.73
2023-02-12T10:00:31.596Z,32.50
2023-02-12T10:03:05.886Z,31.10
2023-02-12T10:05:51.005Z,32.70
2023-02-12T10:08:43.747Z,31.27
2023-02-12T10:11:25.398Z,32.55
2023-02-12T10:14:34.880Z,33.67
2023-02-12T10:17:08.119Z,33.03
2023-02-12T10:20:01.317Z,30.42
2023-02-12T10:22:28.741Z,31.55
2023-02-12T10:25:24.006Z,32.28
2023-02-12T10:27:57.102Z,33.97
2023-02-12T10:30:51.355Z,32.63
2023-02-12T10:33:36.520Z,31.80
2023-02-12T10:36:08.311Z,31.48
2023-02-12T10:38:40.265Z,35.03
2023-02-12T10:41:08.267Z,35.97
2023-02-12T10:43:35.765Z,37.03
2023-02-12T10:46:03.274Z,35.15
2023-02-12T10:48:35.528Z,34.22
2023-02-12T10:51:12.468Z,34.08
2023-02-12T10:53:42.245Z,34.38
2023-02-12T10:56:17.307Z,33.45
2023-02-12T10:58:53.829Z,32.42
2023-02-12T11:01:29.288Z,31.23
2023-02-12T11:04:00.792Z,32.05
2023-02-12T11:06:33.335Z,34.33
2023-02-12T11:09:00.821Z,35.00
2023-02-12T11:11:37.051Z,33.60
2023-02-12T11:14:10.257Z,34.83
2023-02-12T11:16:46.655Z,35.72
2023-02-12T11:19:21.805Z,34.65
2023-02-12T11:21:50.438Z,35.95
2023-02-12T11:24:26.777Z,33.63
2023-02-12T11:27:11.890Z,35.35
2023-02-12T11:29:40.380Z,35.88
2023-02-12T11:32:15.174Z,38.22
2023-02-12T11:34:42.680Z,37.00
2023-02-12T11:37:19.709Z,36.33
2023-02-12T11:39:49.221Z,37.10
2023-02-12T11:42:23.342Z,36.00
2023-02-12T11:44:59.652Z,32.58
2023-02-12T11:47:30.828Z,33.35
2023-02-12T11:50:22.905Z,34.90
2023-02-12T11:52:52.579Z,35.70
2023-02-12T11:55:33.406Z,37.20
2023-02-12T11:58:20.672Z,34.50
2023-02-12T12:01:22.329Z,34.92
2023-02-12T12:04:28.912Z,34.50
2023-02-12T12:07:26.189Z,34.42
2023-02-12T12:10:05.733Z,35.60
2023-02-12T12:12:41.816Z,33.40
2023-02-12T12:15:51.320Z,35.53
2023-02-12T12:18:40.375Z,35.00
2023-02-12T12:21:19.060Z,34.85
2023-02-12T12:23:52.155Z,33.15
2023-02-12T12:26:26.028Z,33.53
2023-02-12T12:29:13.996Z,32.85
2023-02-12T12:31:46.154Z,33.42
2023-02-12T12:34:17.237Z,33.42
2023-02-12T12:36:59.669Z,34.00
2023-02-12T12:39:58.039Z,35.13
2023-02-12T12:42:46.744Z,37.10
2023-02-12T12:45:31.904Z,35.30
2023-02-12T12:48:11.210Z,35.78
2023-02-12T12:50:56.619Z,38.20
2023-02-12T12:53:29.824Z,36.40
2023-02-12T12:55:59.982Z,36.80
2023-02-12T12:58:52.246Z,38.58
2023-02-12T13:01:27.125Z,36.35
2023-02-12T13:04:21.785Z,36.42
2023-02-12T13:07:34.269Z,34.65
2023-02-12T13:10:32.100Z,27.25
2023-02-12T13:13:20.263Z,33.13
2023-02-12T13:15:50.482Z,30.85
2023-02-12T13:18:27.288Z,27.85
2023-02-12T13:20:57.512Z,25.67
2023-02-12T13:23:38.872Z,25.70
2023-02-12T13:26:19.224Z,23.83
2023-02-12T13:29:18.616Z,22.95
2023-02-12T13:31:53.012Z,19.80
2023-02-12T13:34:21.856Z,17.38
2023-02-12T13:36:50.020Z,16.85
2023-02-12T13:39:29.640Z,17.15
2023-02-12T13:42:11.705Z,17.63
2023-02-12T13:45:16.477Z,16.60
2023-02-12T13:48:21.960Z,16.17
2023-02-12T13:51:18.102Z,15.23
2023-02-12T13:53:59.451Z,15.40
2023-02-12T13:56:38.485Z,15.60
2023-02-12T13:59:32.093Z,16.20
2023-02-12T14:02:25.989Z,16.60
2023-02-12T14:04:53.348Z,16.17
2023-02-12T14:07:21.736Z,15.05
2023-02-12T14:09:51.903Z,15.30
2023-02-12T14:12:25.337Z,15.18
2023-02-12T14:15:29.299Z,15.40
2023-02-12T14:18:02.681Z,15.88
2023-02-12T14:20:33.250Z,17.63
2023-02-12T14:23:21.368Z,18.92
2023-02-12T14:26:26.760Z,17.55
2023-02-12T14:28:59.054Z,17.90
2023-02-12T14:34:16.143Z,19.40
2023-02-12T14:36:45.965Z,19.27
2023-02-12T14:39:19.427Z,17.67
2023-02-12T14:42:09.555Z,17.45
2023-02-12T14:44:44.600Z,18.27
2023-02-12T14:47:29.724Z,19.60
2023-02-12T14:50:12.728Z,20.30
2023-02-12T14:52:43.748Z,19.60
2023-02-12T14:55:27.808Z,19.30
2023-02-12T14:57:59.205Z,19.95
2023-02-12T15:00:35.252Z,19.03
2023-02-12T15:03:19.928Z,20.02
2023-02-12T15:05:56.750Z,20.20
2023-02-12T15:08:51.872Z,20.67
2023-02-12T15:11:43.712Z,19.63
2023-02-12T15:14:37.013Z,21.13
2023-02-12T15:17:25.077Z,22.15
2023-02-12T15:20:02.713Z,20.80
2023-02-12T15:22:33.085Z,20.70
2023-02-12T15:25:25.931Z,22.90
2023-02-12T15:28:00.590Z,20.58
2023-02-12T15:30:35.622Z,22.98
2023-02-12T15:33:06.676Z,22.50
2023-02-12T15:35:40.192Z,20.73
2023-02-12T15:38:08.208Z,19.73
2023-02-12T15:40:35.659Z,20.85
2023-02-12T15:43:05.844Z,21.40
2023-02-12T15:45:35.552Z,20.38
2023-02-12T15:48:15.851Z,21.58
2023-02-12T15:50:59.746Z,19.50
2023-02-12T15:53:30.686Z,20.38
2023-02-12T15:56:00.554Z,21.13
2023-02-12T15:58:29.575Z,22.27
2023-02-12T16:01:02.965Z,20.92
2023-02-12T16:03:34.024Z,19.23
2023-02-12T16:06:06.386Z,18.77
2023-02-12T16:11:13.730Z,17.98
2023-02-12T16:13:46.884Z,18.38
2023-02-12T16:16:17.657Z,18.08
2023-02-12T16:18:46.634Z,19.30
2023-02-12T16:21:20.573Z,18.88
2023-02-12T16:23:50.484Z,18.08
2023-02-12T16:26:24.326Z,19.90
2023-02-12T16:28:55.038Z,18.30
2023-02-12T16:31:23.581Z,19.02
2023-02-12T16:33:55.592Z,20.55
2023-02-12T16:36:22.910Z,20.15
2023-02-12T16:38:53.333Z,18.85
2023-02-12T16:41:25.427Z,20.55
2023-02-12T16:44:01.645Z,19.55
2023-02-12T16:46:34.524Z,19.48
2023-02-12T16:49:02.780Z,18.95
2023-02-12T16:51:32.462Z,20.10
2023-02-12T16:54:23.945Z,20.00
2023-02-12T16:56:52.216Z,20.45
2023-02-12T16:59:19.631Z,19.42
2023-02-12T17:02:06.806Z,18.88
2023-02-12T17:04:34.176Z,18.85
2023-02-12T17:07:01.941Z,19.80
2023-02-12T17:09:31.985Z,20.75
2023-02-12T17:11:59.381Z,20.33
2023-02-12T17:14:26.828Z,19.55
2023-02-12T17:16:54.353Z,19.90
2023-02-12T17:19:22.898Z,17.30
2023-02-12T17:21:51.947Z,18.95
2023-02-12T17:24:26.197Z,18.60
2023-02-12T17:26:54.417Z,17.83
2023-02-12T17:29:24.590Z,20.90
2023-02-12T17:31:53.937Z,19.30
2023-02-12T17:34:22.602Z,18.38
2023-02-12T17:36:50.443Z,19.58
2023-02-12T17:39:18.194Z,18.67
2023-02-12T17:41:46.723Z,18.25
2023-02-12T17:44:15.131Z,17.13
2023-02-12T17:46:43.154Z,16.45
2023-02-12T17:49:10.569Z,16.92
2023-02-12T17:51:38.316Z,17.00
2023-02-12T17:54:05.790Z,16.95
2023-02-12T17:56:33.352Z,15.85
2023-02-12T17:59:01.632Z,17.45
2023-02-12T18:01:29.149Z,17.40
2023-02-12T18:03:58.826Z,18.40
2023-02-12T18:06:29.216Z,16.77
2023-02-12T18:08:58.475Z,16.95
2023-02-12T18:11:27.755Z,17.73
2023-02-12T18:13:56.717Z,17.52
2023-02-12T18:16:26.515Z,23.88
2023-02-12T18:18:54.201Z,21.50
2023-02-12T18:21:21.641Z,19.13
2023-02-12T18:23:49.182Z,19.58
2023-02-12T18:26:18.326Z,17.75
2023-02-12T18:28:46.344Z,18.08
2023-02-12T18:31:14.301Z,17.65
2023-02-12T18:33:41.973Z,15.02
2023-02-12T18:36:14.836Z,13.75
2023-02-12T18:38:43.084Z,16.00
2023-02-12T18:41:19.472Z,22.48
2023-02-12T18:43:47.018Z,20.33
2023-02-12T18:46:15.838Z,18.70
2023-02-12T18:48:43.647Z,23.92
2023-02-12T18:51:15.134Z,41.78
2023-02-12T18:53:43.303Z,58.55
2023-02-12T18:56:12.419Z,58.05
2023-02-12T18:58:43.491Z,21.00
2023-02-12T19:01:19.307Z,18.52
2023-02-12T19:03:49.439Z,69.22
2023-02-12T19:06:17.020Z,42.92
2023-02-12T19:08:44.396Z,28.75
2023-02-12T19:11:14.783Z,24.05
2023-02-12T19:13:43.902Z,38.05
2023-02-12T19:16:16.781Z,23.90
2023-02-12T19:18:44.468Z,19.50
2023-02-12T19:21:14.542Z,22.55
2023-02-12T19:23:42.702Z,32.85
2023-02-12T19:26:12.749Z,18.88
2023-02-12T19:28:40.557Z,38.72
2023-02-12T19:31:16.367Z,30.58
2023-02-12T19:33:44.897Z,26.95
2023-02-12T19:36:15.240Z,23.17
2023-02-12T19:38:46.324Z,67.70
2023-02-12T19:41:16.786Z,39.72
2023-02-12T19:43:44.569Z,23.30
2023-02-12T19:46:21.795Z,21.73
2023-02-12T19:48:49.616Z,19.23
2023-02-12T19:51:19.544Z,30.20
2023-02-12T19:53:48.479Z,19.10
2023-02-12T19:56:16.462Z,21.48
2023-02-12T19:58:44.834Z,23.42
2023-02-12T20:01:16.374Z,20.67
2023-02-12T20:03:44.972Z,24.40
2023-02-12T20:06:19.624Z,20.25
2023-02-12T20:08:47.030Z,18.73
2023-02-12T20:11:17.858Z,48.38
2023-02-12T20:13:48.685Z,28.52
2023-02-12T20:16:19.420Z,50.97
2023-02-12T20:18:49.017Z,40.13
2023-02-12T20:21:28.428Z,37.03
2023-02-12T20:23:57.253Z,33.97
2023-02-12T20:26:25.197Z,47.25
2023-02-12T20:28:52.823Z,58.22
2023-02-12T20:31:26.219Z,24.85
2023-02-12T20:33:59.792Z,26.17
2023-02-12T20:36:30.267Z,27.10
2023-02-12T20:38:58.368Z,24.48
2023-02-12T20:41:27.331Z,21.23
2023-02-12T20:43:55.838Z,23.73
2023-02-12T20:46:24.956Z,37.80
2023-02-12T20:48:54.308Z,37.38
2023-02-12T20:51:25.273Z,37.88
2023-02-12T20:53:54.141Z,38.78
2023-02-12T20:56:27.009Z,32.90
2023-02-12T20:58:54.928Z,28.73
2023-02-12T21:01:34.789Z,31.73
2023-02-12T21:04:14.210Z,37.83
2023-02-12T21:06:42.146Z,34.78
2023-02-12T21:09:11.638Z,47.28
2023-02-12T21:11:41.009Z,46.53
2023-02-12T21:14:21.831Z,42.22
2023-02-12T21:16:50.812Z,35.58
2023-02-12T21:19:18.926Z,37.35
2023-02-12T21:21:46.463Z,38.80
2023-02-12T21:24:16.910Z,25.27
2023-02-12T21:26:44.637Z,29.20
2023-02-12T21:29:12.422Z,26.40
2023-02-12T21:31:42.341Z,28.52
2023-02-12T21:34:17.506Z,28.13
2023-02-12T21:36:46.554Z,19.33
2023-02-12T21:39:27.541Z,20.33
2023-02-12T21:42:00.945Z,20.70
2023-02-12T21:44:29.811Z,17.85
2023-02-12T21:47:00.436Z,21.35
2023-02-12T21:49:28.640Z,16.38
2023-02-12T21:52:02.258Z,16.38
2023-02-12T21:54:33.914Z,18.63
2023-02-12T21:57:01.699Z,18.77
2023-02-12T21:59:38.056Z,20.83
2023-02-12T22:02:06.920Z,19.08
2023-02-12T22:04:34.469Z,17.23
2023-02-12T22:07:12.086Z,17.48
2023-02-12T22:09:42.725Z,16.38
2023-02-12T22:12:10.305Z,17.83
2023-02-12T22:14:38.948Z,20.00
2023-02-12T22:17:18.660Z,20.15
2023-02-12T22:19:46.890Z,20.02
2023-02-12T22:22:14.619Z,21.40
2023-02-12T22:24:49.099Z,19.70
2023-02-12T22:27:17.014Z,17.85
2023-02-12T22:29:53.075Z,14.80
2023-02-12T22:32:26.951Z,16.17
2023-02-12T22:34:57.241Z,16.10
2023-02-12T22:37:28.391Z,13.95
2023-02-12T22:39:56.143Z,13.98
2023-02-12T22:42:35.844Z,14.43
2023-02-12T22:45:08.690Z,12.07
2023-02-12T22:47:36.146Z,13.63
2023-02-12T22:50:03.962Z,13.10
2023-02-12T22:52:31.975Z,11.70
2023-02-12T22:54:59.362Z,12.13
2023-02-12T22:57:26.821Z,10.80
2023-02-12T22:59:55.155Z,11.10
2023-02-12T23:02:22.638Z,10.50
2023-02-12T23:04:50.015Z,8.95
2023-02-12T23:07:17.382Z,10.73
2023-02-12T23:09:44.778Z,9.63
2023-02-12T23:12:12.315Z,10.15
2023-02-12T23:14:39.736Z,9.70
2023-02-12T23:17:07.165Z,9.70
2023-02-12T23:19:34.572Z,9.85
2023-02-12T23:22:02.224Z,10.10
2023-02-12T23:24:29.582Z,9.80
2023-02-12T23:26:57.008Z,10.10
2023-02-12T23:29:24.405Z,9.35
2023-02-12T23:31:51.784Z,9.10
2023-02-12T23:34:19.222Z,8.05
2023-02-12T23:36:46.683Z,8.15
2023-02-12T23:39:14.253Z,9.35
2023-02-12T23:41:41.804Z,8.23
2023-02-12T23:44:09.721Z,8.80
2023-02-12T23:46:37.519Z,7.60
2023-02-12T23:49:05.692Z,7.57
2023-02-12T23:51:33.667Z,8.60
2023-02-12T23:54:02.702Z,7.25
2023-02-12T23:56:30.215Z,7.07
2023-02-12T23:58:57.832Z,6.80
